Scf Primorye — A8SW6 — position and weather

sailwx.info

Track history (hours):
 
Tides and Currents Weather Stations Pressure Air Temp Water Temp Dewpoint Dewpoint Depression Visibility Wind Speed Wind Dir Waves Ship Positions

Scf Primorye

Last reported at 2018-May-12 11:30 UTC. Time now 2018-May-22 02:16 UTC.
Position N 36°09' W 027°43'.
Warning: this ship's position is 9 days out of date.

Length 273 m; draft 16.6 m.

Type: Ship. MMSI: 636014308.

Date/timePositionNaut miles runAvg speedWind from/ knotsBaromVisibWave heightAir tempDewpointWater temp
2018-May-12 11:30N 36°09' W 027°43'912.9
2018-May-12 10:47N 36°09' W 027°32'7812.6
2018-May-12 04:34N 36°08' W 025°55'111.9
2018-May-12 04:30N 36°08' W 025°54'1312.1
2018-May-12 03:27N 36°07' W 025°38'511.8
2018-May-12 03:00N 36°07' W 025°32'611.9
2018-May-12 02:31N 36°06' W 025°25'611.9
2018-May-12 02:00N 36°06' W 025°17'612.0
2018-May-12 01:30N 36°06' W 025°10'612.2
2018-May-12 01:00N 36°06' W 025°02'612.3
2018-May-12 00:30N 36°06' W 024°55'612.7
2018-May-12 00:00N 36°06' W 024°47'612.5
2018-May-11 23:30N 36°06' W 024°39'612.7
2018-May-11 23:00N 36°06' W 024°31'612.6
2018-May-11 22:30N 36°06' W 024°23'612.9
2018-May-11 22:00N 36°06' W 024°16'612.8
2018-May-11 21:30N 36°06' W 024°08'613.1
2018-May-11 21:00N 36°05' W 023°60'1412.9
2018-May-11 19:54N 36°05' W 023°42'1413.1
2018-May-11 18:48N 36°05' W 023°24'412.8
2018-May-11 18:30N 36°05' W 023°19'52512.6
2018-May-10 00:52N 35°06' W 012°38'34712.6
2018-May-08 21:19N 35°58' W 005°37'310.5
2018-May-08 21:00N 35°59' W 005°33'510.1
2018-May-08 20:30N 36°00' W 005°27'5 9.2
2018-May-08 20:00N 36°04' W 005°23'4 7.4
2018-May-08 19:30N 36°07' W 005°22'0 0.0
2018-May-08 14:23N 36°07' W 005°22'0 0.0
2018-May-08 12:32N 36°07' W 005°22'0 0.0
2018-May-08 12:29N 36°07' W 005°22'0 0.0
2018-May-08 06:05N 36°08' W 005°22'0 0.1
2018-May-08 05:59N 36°08' W 005°22'0 0.0
2018-May-08 04:29N 36°08' W 005°22'0 0.2
2018-May-08 03:59N 36°07' W 005°22'0 0.2
2018-May-08 03:29N 36°07' W 005°22'0 0.1
2018-May-08 02:59N 36°07' W 005°22'0 0.0
2018-May-08 01:53N 36°07' W 005°22'0 0.0
2018-May-08 01:29N 36°07' W 005°22'0 0.3
2018-May-08 01:00N 36°07' W 005°22'2 3.7
2018-May-08 00:30N 36°05' W 005°22'3 5.5
2018-May-08 00:01N 36°05' W 005°18'4 8.6
2018-May-07 23:31N 36°06' W 005°13'  
2018-May-04 02:23N 36°37' E 014°00'511.0
2018-May-04 01:55N 36°34' E 014°06'410.7
2018-May-04 01:30N 36°33' E 014°11'610.6
2018-May-04 00:59N 36°30' E 014°17'510.2
2018-May-04 00:31N 36°29' E 014°23'5 9.8
2018-May-04 00:00N 36°27' E 014°29'5 9.5
2018-May-03 23:30N 36°25' E 014°34'5 9.7
2018-May-03 23:00N 36°24' E 014°40'5 9.6
2018-May-03 22:30N 36°22' E 014°46'  
Track history (hours):
 
Tides and Currents Weather Stations Pressure Air Temp Water Temp Dewpoint Dewpoint Depression Visibility Wind Speed Wind Dir Waves Ship Positions

Scf Primorye

Last reported at 2018-May-12 11:30 UTC. Time now 2018-May-22 02:16 UTC.
Position N 36°09' W 027°43'.
Warning: this ship's position is 9 days out of date.

Length 273 m; draft 16.6 m.

Type: Ship. MMSI: 636014308.

Date/timePositionNaut miles runAvg speedWind from/ knotsBaromVisibWave heightAir tempDewpointWater temp
2018-May-12 11:30N 36°09' W 027°43'912.9
2018-May-12 10:47N 36°09' W 027°32'7812.6
2018-May-12 04:34N 36°08' W 025°55'111.9
2018-May-12 04:30N 36°08' W 025°54'1312.1
2018-May-12 03:27N 36°07' W 025°38'511.8
2018-May-12 03:00N 36°07' W 025°32'611.9
2018-May-12 02:31N 36°06' W 025°25'611.9
2018-May-12 02:00N 36°06' W 025°17'612.0
2018-May-12 01:30N 36°06' W 025°10'612.2
2018-May-12 01:00N 36°06' W 025°02'612.3
2018-May-12 00:30N 36°06' W 024°55'612.7
2018-May-12 00:00N 36°06' W 024°47'612.5
2018-May-11 23:30N 36°06' W 024°39'612.7
2018-May-11 23:00N 36°06' W 024°31'612.6
2018-May-11 22:30N 36°06' W 024°23'612.9
2018-May-11 22:00N 36°06' W 024°16'612.8
2018-May-11 21:30N 36°06' W 024°08'613.1
2018-May-11 21:00N 36°05' W 023°60'1412.9
2018-May-11 19:54N 36°05' W 023°42'1413.1
2018-May-11 18:48N 36°05' W 023°24'412.8
2018-May-11 18:30N 36°05' W 023°19'52512.6
2018-May-10 00:52N 35°06' W 012°38'34712.6
2018-May-08 21:19N 35°58' W 005°37'310.5
2018-May-08 21:00N 35°59' W 005°33'510.1
2018-May-08 20:30N 36°00' W 005°27'5 9.2
2018-May-08 20:00N 36°04' W 005°23'4 7.4
2018-May-08 19:30N 36°07' W 005°22'0 0.0
2018-May-08 14:23N 36°07' W 005°22'0 0.0
2018-May-08 12:32N 36°07' W 005°22'0 0.0
2018-May-08 12:29N 36°07' W 005°22'0 0.0
2018-May-08 06:05N 36°08' W 005°22'0 0.1
2018-May-08 05:59N 36°08' W 005°22'0 0.0
2018-May-08 04:29N 36°08' W 005°22'0 0.2
2018-May-08 03:59N 36°07' W 005°22'0 0.2
2018-May-08 03:29N 36°07' W 005°22'0 0.1
2018-May-08 02:59N 36°07' W 005°22'0 0.0
2018-May-08 01:53N 36°07' W 005°22'0 0.0
2018-May-08 01:29N 36°07' W 005°22'0 0.3
2018-May-08 01:00N 36°07' W 005°22'2 3.7
2018-May-08 00:30N 36°05' W 005°22'3 5.5
2018-May-08 00:01N 36°05' W 005°18'4 8.6
2018-May-07 23:31N 36°06' W 005°13'  
2018-May-04 02:23N 36°37' E 014°00'511.0
2018-May-04 01:55N 36°34' E 014°06'410.7
2018-May-04 01:30N 36°33' E 014°11'610.6
2018-May-04 00:59N 36°30' E 014°17'510.2
2018-May-04 00:31N 36°29' E 014°23'5 9.8
2018-May-04 00:00N 36°27' E 014°29'5 9.5
2018-May-03 23:30N 36°25' E 014°34'5 9.7
2018-May-03 23:00N 36°24' E 014°40'5 9.6
2018-May-03 22:30N 36°22' E 014°46'  

Dump ship's entire track history